createdAt,value
2023-03-12T00:02:18.561Z,15.60
2023-03-12T00:04:44.968Z,16.92
2023-03-12T00:07:11.379Z,15.43
2023-03-12T00:09:39.170Z,17.00
2023-03-12T00:12:07.307Z,16.65
2023-03-12T00:14:33.821Z,16.23
2023-03-12T00:17:00.324Z,18.02
2023-03-12T00:19:27.063Z,16.38
2023-03-12T00:21:53.477Z,16.58
2023-03-12T00:24:19.911Z,19.25
2023-03-12T00:26:46.339Z,20.27
2023-03-12T00:29:12.796Z,19.15
2023-03-12T00:31:39.477Z,18.55
2023-03-12T00:34:05.956Z,18.60
2023-03-12T00:36:33.360Z,18.05
2023-03-12T00:39:00.865Z,16.80
2023-03-12T00:41:28.441Z,17.17
2023-03-12T00:43:54.871Z,17.55
2023-03-12T00:46:22.133Z,18.02
2023-03-12T00:48:48.797Z,16.25
2023-03-12T00:51:15.938Z,17.63
2023-03-12T00:53:42.430Z,16.65
2023-03-12T00:56:08.947Z,17.38
2023-03-12T00:58:36.269Z,18.63
2023-03-12T01:01:02.950Z,15.48
2023-03-12T01:03:29.654Z,16.25
2023-03-12T01:05:56.145Z,17.42
2023-03-12T01:08:23.326Z,16.48
2023-03-12T01:10:50.170Z,17.83
2023-03-12T01:13:16.693Z,18.67
2023-03-12T01:15:43.292Z,16.38
2023-03-12T01:18:09.921Z,17.02
2023-03-12T01:20:36.484Z,15.60
2023-03-12T01:23:02.921Z,14.60
2023-03-12T01:25:29.717Z,16.80
2023-03-12T01:27:56.111Z,17.00
2023-03-12T01:30:23.653Z,16.60
2023-03-12T01:32:51.619Z,17.77
2023-03-12T01:35:19.110Z,17.08
2023-03-12T01:37:45.686Z,15.05
2023-03-12T01:40:16.121Z,14.82
2023-03-12T01:42:42.700Z,14.52
2023-03-12T01:45:46.816Z,16.52
2023-03-12T01:48:13.334Z,15.77
2023-03-12T01:50:39.747Z,18.13
2023-03-12T01:53:06.408Z,18.35
2023-03-12T01:55:33.082Z,21.42
2023-03-12T01:58:01.573Z,18.95
2023-03-12T02:00:28.508Z,18.35
2023-03-12T02:03:00.235Z,19.02
2023-03-12T02:05:43.423Z,17.33
2023-03-12T02:08:11.576Z,19.02
2023-03-12T02:10:38.110Z,25.15
2023-03-12T02:13:05.334Z,19.58
2023-03-12T02:15:36.224Z,19.65
2023-03-12T02:18:04.173Z,18.80
2023-03-12T02:20:56.754Z,19.65
2023-03-12T02:23:30.302Z,16.73
2023-03-12T02:25:59.879Z,19.55
2023-03-12T02:28:29.600Z,22.58
2023-03-12T02:31:00.246Z,18.98
2023-03-12T02:33:26.843Z,16.75
2023-03-12T02:35:54.256Z,18.25
2023-03-12T02:38:32.987Z,17.85
2023-03-12T02:41:04.766Z,18.48
2023-03-12T02:43:31.236Z,21.63
2023-03-12T02:45:57.947Z,19.10
2023-03-12T02:48:24.666Z,19.95
2023-03-12T02:50:52.325Z,18.85
2023-03-12T02:53:18.820Z,17.20
2023-03-12T02:55:45.239Z,18.25
2023-03-12T02:58:11.632Z,20.63
2023-03-12T03:00:38.244Z,17.20
2023-03-12T03:03:04.678Z,21.70
2023-03-12T03:05:31.323Z,16.38
2023-03-12T03:07:57.737Z,20.98
2023-03-12T03:10:24.221Z,18.92
2023-03-12T03:12:51.377Z,17.25
2023-03-12T03:15:17.934Z,19.33
2023-03-12T03:17:44.497Z,21.90
2023-03-12T03:20:11.899Z,19.27
2023-03-12T03:22:39.379Z,18.88
2023-03-12T03:25:07.258Z,22.17
2023-03-12T03:27:33.947Z,20.83
2023-03-12T03:30:00.364Z,20.85
2023-03-12T03:32:27.368Z,17.42
2023-03-12T03:34:53.893Z,22.08
2023-03-12T03:37:20.500Z,19.75
2023-03-12T03:39:47.093Z,20.15
2023-03-12T03:42:13.621Z,20.33
2023-03-12T03:47:12.958Z,17.67
2023-03-12T03:49:39.426Z,24.48
2023-03-12T03:52:06.372Z,21.73
2023-03-12T03:54:35.898Z,20.52
2023-03-12T03:57:03.435Z,19.67
2023-03-12T03:59:29.887Z,17.77
2023-03-12T04:01:57.037Z,18.23
2023-03-12T04:04:24.143Z,16.27
2023-03-12T04:06:50.898Z,16.33
2023-03-12T04:09:17.462Z,14.75
2023-03-12T04:11:43.930Z,19.25
2023-03-12T04:14:12.488Z,16.05
2023-03-12T04:16:41.527Z,19.60
2023-03-12T04:19:08.191Z,21.25
2023-03-12T04:21:34.761Z,22.05
2023-03-12T04:24:01.659Z,16.42
2023-03-12T04:26:31.968Z,20.00
2023-03-12T04:29:00.464Z,22.42
2023-03-12T04:31:27.218Z,24.85
2023-03-12T04:33:53.644Z,16.92
2023-03-12T04:36:23.001Z,19.83
2023-03-12T04:38:51.105Z,19.33
2023-03-12T04:41:21.157Z,22.25
2023-03-12T04:43:52.317Z,23.48
2023-03-12T04:46:19.809Z,24.77
2023-03-12T04:48:46.258Z,21.85
2023-03-12T04:51:13.802Z,19.27
2023-03-12T04:53:40.635Z,18.35
2023-03-12T04:56:09.229Z,19.42
2023-03-12T04:58:36.870Z,18.60
2023-03-12T05:01:05.542Z,17.58
2023-03-12T05:03:32.726Z,17.80
2023-03-12T05:05:59.549Z,18.65
2023-03-12T05:08:26.369Z,20.13
2023-03-12T05:10:52.895Z,18.13
2023-03-12T05:13:21.719Z,17.75
2023-03-12T05:15:52.174Z,18.50
2023-03-12T05:18:21.271Z,20.80
2023-03-12T05:20:58.101Z,17.55
2023-03-12T05:23:24.635Z,23.40
2023-03-12T05:25:51.064Z,20.20
2023-03-12T05:28:17.553Z,20.35
2023-03-12T05:30:43.960Z,18.77
2023-03-12T05:33:10.425Z,18.38
2023-03-12T05:35:36.937Z,20.67
2023-03-12T05:38:03.585Z,21.50
2023-03-12T05:40:30.612Z,21.98
2023-03-12T05:42:56.997Z,19.65
2023-03-12T05:45:25.859Z,20.73
2023-03-12T05:47:55.215Z,18.13
2023-03-12T05:50:21.716Z,19.55
2023-03-12T05:52:48.135Z,23.70
2023-03-12T05:55:14.669Z,20.05
2023-03-12T05:57:44.328Z,17.73
2023-03-12T06:00:13.839Z,23.55
2023-03-12T06:02:43.358Z,14.98
2023-03-12T06:05:11.763Z,17.67
2023-03-12T06:07:38.630Z,19.60
2023-03-12T06:10:06.394Z,19.33
2023-03-12T06:12:33.128Z,21.67
2023-03-12T06:15:00.266Z,23.35
2023-03-12T06:17:29.550Z,22.85
2023-03-12T06:19:55.998Z,20.27
2023-03-12T06:22:22.422Z,21.70
2023-03-12T06:24:49.690Z,23.10
2023-03-12T06:27:17.312Z,18.48
2023-03-12T06:29:46.263Z,24.13
2023-03-12T06:32:13.594Z,23.20
2023-03-12T06:34:39.960Z,22.92
2023-03-12T06:37:06.360Z,18.75
2023-03-12T06:39:32.868Z,22.95
2023-03-12T06:41:59.224Z,20.20
2023-03-12T06:44:25.564Z,21.73
2023-03-12T06:46:52.149Z,20.55
2023-03-12T06:49:18.524Z,20.83
2023-03-12T06:51:45.020Z,21.38
2023-03-12T06:54:11.500Z,21.02
2023-03-12T06:56:38.224Z,20.27
2023-03-12T06:59:04.632Z,20.38
2023-03-12T07:01:31.207Z,25.38
2023-03-12T07:03:57.704Z,20.55
2023-03-12T07:06:24.935Z,24.02
2023-03-12T07:08:52.411Z,18.90
2023-03-12T07:11:18.968Z,22.35
2023-03-12T07:13:45.452Z,20.63
2023-03-12T07:16:12.625Z,22.27
2023-03-12T07:18:39.126Z,23.48
2023-03-12T07:21:05.713Z,22.77
2023-03-12T07:23:32.100Z,23.20
2023-03-12T07:25:58.494Z,19.92
2023-03-12T07:28:24.886Z,20.05
2023-03-12T07:30:51.307Z,23.63
2023-03-12T07:33:20.436Z,24.27
2023-03-12T07:35:50.186Z,19.92
2023-03-12T07:38:18.094Z,20.90
2023-03-12T07:40:44.912Z,22.50
2023-03-12T07:43:12.631Z,23.58
2023-03-12T07:45:40.872Z,24.30
2023-03-12T07:48:08.220Z,23.23
2023-03-12T07:50:35.886Z,22.08
2023-03-12T07:53:02.351Z,23.77
2023-03-12T07:55:28.859Z,22.10
2023-03-12T07:57:58.277Z,24.48
2023-03-12T08:00:26.304Z,22.88
2023-03-12T08:02:53.088Z,24.52
2023-03-12T08:05:20.131Z,26.30
2023-03-12T08:07:46.646Z,20.63
2023-03-12T08:10:13.115Z,21.67
2023-03-12T08:12:39.556Z,24.88
2023-03-12T08:15:08.332Z,23.52
2023-03-12T08:17:35.275Z,21.48
2023-03-12T08:20:01.758Z,21.48
2023-03-12T08:22:28.194Z,23.45
2023-03-12T08:24:54.615Z,23.48
2023-03-12T08:27:21.044Z,20.15
2023-03-12T08:29:47.423Z,21.73
2023-03-12T08:32:16.965Z,27.88
2023-03-12T08:34:43.398Z,21.75
2023-03-12T08:37:09.841Z,21.98
2023-03-12T08:39:36.671Z,21.52
2023-03-12T08:42:03.774Z,28.08
2023-03-12T08:44:30.270Z,30.45
2023-03-12T08:46:57.052Z,23.88
2023-03-12T08:49:23.489Z,26.15
2023-03-12T08:51:51.743Z,24.17
2023-03-12T08:54:19.200Z,26.67
2023-03-12T08:56:46.548Z,31.67
2023-03-12T08:59:13.592Z,29.67
2023-03-12T09:01:43.548Z,28.35
2023-03-12T09:04:10.631Z,25.08
2023-03-12T09:06:38.290Z,27.30
2023-03-12T09:09:05.568Z,25.50
2023-03-12T09:11:33.718Z,25.27
2023-03-12T09:14:57.454Z,26.83
2023-03-12T09:16:47.337Z,22.38
2023-03-12T09:19:13.789Z,31.45
2023-03-12T09:21:40.297Z,27.38
2023-03-12T09:24:07.794Z,28.67
2023-03-12T09:26:34.379Z,33.83
2023-03-12T09:29:00.788Z,41.97
2023-03-12T09:31:27.411Z,31.35
2023-03-12T09:33:53.761Z,31.73
2023-03-12T09:36:20.246Z,34.63
2023-03-12T09:38:46.837Z,35.33
2023-03-12T09:41:19.607Z,31.10
2023-03-12T09:43:52.817Z,33.30
2023-03-12T09:46:29.392Z,28.40
2023-03-12T09:48:58.839Z,32.45
2023-03-12T09:51:38.051Z,31.05
2023-03-12T09:54:14.204Z,34.67
2023-03-12T09:56:41.115Z,29.30
2023-03-12T09:59:12.856Z,30.83
2023-03-12T10:01:47.834Z,33.03
2023-03-12T10:04:58.181Z,29.40
2023-03-12T10:07:37.799Z,33.03
2023-03-12T10:10:13.516Z,34.40
2023-03-12T10:12:47.618Z,34.25
2023-03-12T10:15:31.771Z,29.92
2023-03-12T10:18:13.530Z,30.50
2023-03-12T10:21:07.491Z,29.10
2023-03-12T10:23:43.204Z,33.88
2023-03-12T10:26:16.794Z,25.58
2023-03-12T10:28:48.166Z,30.50
2023-03-12T10:31:29.505Z,25.20
2023-03-12T10:33:59.061Z,26.20
2023-03-12T10:36:39.355Z,29.88
2023-03-12T10:39:18.252Z,28.90
2023-03-12T10:41:46.216Z,29.45
2023-03-12T10:44:24.533Z,30.42
2023-03-12T10:47:23.479Z,30.17
2023-03-12T10:49:51.064Z,30.13
2023-03-12T10:52:20.343Z,29.20
2023-03-12T10:54:51.126Z,27.05
2023-03-12T10:57:18.740Z,29.05
2023-03-12T10:59:47.780Z,29.08
2023-03-12T11:02:39.820Z,28.85
2023-03-12T11:05:29.441Z,30.98
2023-03-12T11:07:57.160Z,29.50
2023-03-12T11:10:44.777Z,27.80
2023-03-12T11:13:27.175Z,27.27
2023-03-12T11:15:55.333Z,28.15
2023-03-12T11:18:34.346Z,25.02
2023-03-12T11:21:08.639Z,27.85
2023-03-12T11:23:43.047Z,28.73
2023-03-12T11:26:22.058Z,31.67
2023-03-12T11:28:59.285Z,30.60
2023-03-12T11:31:31.159Z,30.48
2023-03-12T11:34:05.637Z,35.55
2023-03-12T11:36:43.491Z,31.65
2023-03-12T11:39:48.626Z,28.70
2023-03-12T11:42:36.579Z,31.05
2023-03-12T11:45:32.938Z,31.85
2023-03-12T11:48:42.246Z,30.48
2023-03-12T11:51:19.589Z,34.15
2023-03-12T11:54:04.096Z,31.65
2023-03-12T11:56:36.097Z,27.50
2023-03-12T11:59:27.147Z,32.13
2023-03-12T12:02:10.537Z,35.38
2023-03-12T12:04:55.721Z,33.50
2023-03-12T12:08:08.401Z,30.02
2023-03-12T12:11:01.802Z,27.60
2023-03-12T12:13:37.242Z,33.83
2023-03-12T12:16:23.996Z,32.90
2023-03-12T12:19:18.159Z,33.05
2023-03-12T12:22:03.380Z,29.35
2023-03-12T12:24:32.644Z,32.60
2023-03-12T12:27:17.254Z,30.00
2023-03-12T12:30:08.477Z,30.88
2023-03-12T12:33:09.181Z,32.95
2023-03-12T12:35:38.616Z,29.38
2023-03-12T12:38:16.350Z,31.13
2023-03-12T12:40:48.686Z,33.08
2023-03-12T12:43:18.008Z,24.58
2023-03-12T12:45:48.736Z,32.63
2023-03-12T12:48:22.731Z,30.20
2023-03-12T12:50:53.541Z,30.90
2023-03-12T12:53:32.762Z,34.60
2023-03-12T12:56:20.066Z,32.90
2023-03-12T12:59:00.477Z,29.55
2023-03-12T13:01:28.060Z,30.80
2023-03-12T13:04:01.203Z,32.10
2023-03-12T13:06:30.072Z,29.63
2023-03-12T13:08:56.587Z,29.85
2023-03-12T13:11:27.049Z,29.50
2023-03-12T13:14:02.785Z,28.35
2023-03-12T13:16:39.023Z,34.80
2023-03-12T13:19:22.483Z,33.35
2023-03-12T13:22:12.977Z,33.80
2023-03-12T13:24:45.097Z,31.92
2023-03-12T13:27:44.950Z,27.13
2023-03-12T13:30:33.051Z,32.00
2023-03-12T13:33:01.511Z,27.60
2023-03-12T13:35:40.465Z,31.02
2023-03-12T13:38:33.470Z,27.30
2023-03-12T13:41:06.732Z,28.50
2023-03-12T13:43:35.967Z,31.52
2023-03-12T13:46:28.423Z,27.73
2023-03-12T13:49:00.395Z,31.70
2023-03-12T13:51:27.742Z,25.50
2023-03-12T13:54:00.005Z,29.17
2023-03-12T13:56:29.349Z,30.02
2023-03-12T13:58:55.667Z,31.75
2023-03-12T14:01:26.729Z,31.63
2023-03-12T14:03:56.974Z,28.27
2023-03-12T14:06:28.621Z,29.90
2023-03-12T14:09:06.899Z,30.35
2023-03-12T14:11:33.605Z,33.20
2023-03-12T14:14:20.692Z,31.70
2023-03-12T14:16:50.922Z,36.88
2023-03-12T14:19:23.244Z,45.22
2023-03-12T14:21:51.296Z,51.03
2023-03-12T14:24:37.003Z,35.95
2023-03-12T14:27:06.366Z,33.00
2023-03-12T14:29:38.914Z,33.08
2023-03-12T14:32:13.632Z,32.70
2023-03-12T14:34:47.688Z,33.03
2023-03-12T14:37:24.002Z,33.33
2023-03-12T14:40:25.349Z,30.98
2023-03-12T14:42:51.773Z,26.80
2023-03-12T14:45:21.279Z,28.58
2023-03-12T14:47:58.523Z,29.77
2023-03-12T14:50:27.986Z,28.45
2023-03-12T14:52:55.853Z,30.17
2023-03-12T14:55:25.051Z,29.75
2023-03-12T14:58:16.723Z,28.00
2023-03-12T15:00:45.832Z,32.83
2023-03-12T15:03:16.607Z,32.03
2023-03-12T15:05:47.705Z,29.73
2023-03-12T15:08:15.190Z,30.10
2023-03-12T15:10:48.385Z,29.10
2023-03-12T15:13:17.072Z,25.95
2023-03-12T15:15:47.290Z,26.13
2023-03-12T15:18:18.561Z,27.98
2023-03-12T15:20:47.390Z,27.48
2023-03-12T15:23:15.685Z,27.45
2023-03-12T15:25:42.328Z,24.75
2023-03-12T15:28:26.502Z,24.95
2023-03-12T15:31:07.118Z,29.58
2023-03-12T15:33:34.037Z,27.27
2023-03-12T15:36:06.360Z,29.42
2023-03-12T15:38:35.040Z,29.85
2023-03-12T15:41:07.768Z,28.20
2023-03-12T15:43:34.787Z,30.27
2023-03-12T15:46:05.959Z,29.73
2023-03-12T15:48:39.478Z,29.17
2023-03-12T15:51:36.301Z,28.80
2023-03-12T15:54:27.244Z,38.97
2023-03-12T15:56:53.904Z,31.15
2023-03-12T15:59:25.121Z,38.22
2023-03-12T16:01:53.879Z,31.20
2023-03-12T16:04:21.119Z,29.95
2023-03-12T16:06:49.064Z,30.50
2023-03-12T16:09:22.534Z,26.23
2023-03-12T16:11:49.263Z,27.08
2023-03-12T16:14:27.705Z,30.55
2023-03-12T16:16:54.162Z,31.65
2023-03-12T16:19:22.974Z,30.30
2023-03-12T16:21:49.954Z,30.08
2023-03-12T16:24:16.860Z,28.33
2023-03-12T16:26:56.745Z,30.10
2023-03-12T16:29:31.321Z,27.77
2023-03-12T16:31:58.294Z,28.67
2023-03-12T16:34:25.092Z,32.88
2023-03-12T16:36:51.681Z,31.15
2023-03-12T16:39:19.022Z,32.72
2023-03-12T16:41:46.438Z,28.55
2023-03-12T16:44:20.276Z,29.95
2023-03-12T16:46:47.210Z,27.63
2023-03-12T16:49:16.296Z,28.67
2023-03-12T16:51:43.036Z,26.65
2023-03-12T16:54:11.840Z,28.05
2023-03-12T16:56:42.981Z,28.95
2023-03-12T16:59:23.858Z,28.02
2023-03-12T17:01:50.648Z,26.38
2023-03-12T17:04:17.101Z,23.02
2023-03-12T17:06:43.513Z,25.77
2023-03-12T17:09:09.887Z,26.13
2023-03-12T17:11:37.792Z,22.38
2023-03-12T17:14:21.879Z,24.13
2023-03-12T17:16:48.572Z,26.30
2023-03-12T17:19:14.953Z,26.75
2023-03-12T17:21:41.915Z,25.95
2023-03-12T17:24:10.302Z,28.42
2023-03-12T17:26:36.907Z,26.88
2023-03-12T17:29:03.331Z,28.77
2023-03-12T17:31:29.823Z,29.35
2023-03-12T17:33:56.295Z,29.30
2023-03-12T17:36:23.025Z,29.33
2023-03-12T17:38:50.956Z,26.05
2023-03-12T17:41:25.893Z,28.90
2023-03-12T17:43:54.707Z,25.55
2023-03-12T17:46:21.276Z,26.55
2023-03-12T17:48:47.692Z,29.15
2023-03-12T17:51:14.065Z,26.23
2023-03-12T17:53:41.742Z,28.45
2023-03-12T17:56:08.153Z,29.10
2023-03-12T17:58:34.603Z,31.83
2023-03-12T18:01:01.318Z,32.42
2023-03-12T18:03:27.824Z,26.58
2023-03-12T18:05:54.397Z,26.77
2023-03-12T18:08:21.390Z,31.65
2023-03-12T18:10:48.412Z,27.63
2023-03-12T18:13:14.851Z,25.23
2023-03-12T18:15:41.365Z,26.13
2023-03-12T18:18:07.852Z,21.98
2023-03-12T18:20:39.186Z,29.40
2023-03-12T18:23:06.614Z,20.23
2023-03-12T18:25:33.041Z,23.83
2023-03-12T18:27:59.486Z,23.42
2023-03-12T18:30:26.158Z,33.47
2023-03-12T18:32:52.579Z,29.67
2023-03-12T18:35:19.032Z,23.25
2023-03-12T18:37:46.029Z,32.20
2023-03-12T18:40:12.664Z,27.67
2023-03-12T18:42:44.193Z,24.23
2023-03-12T18:45:11.792Z,24.40
2023-03-12T18:47:41.882Z,21.10
2023-03-12T18:50:09.536Z,23.63
2023-03-12T18:52:35.918Z,23.40
2023-03-12T18:55:02.492Z,23.00
2023-03-12T18:57:28.927Z,23.27
2023-03-12T18:59:55.910Z,24.13
2023-03-12T19:02:23.586Z,24.10
2023-03-12T19:04:55.923Z,22.33
2023-03-12T19:07:22.792Z,23.00
2023-03-12T19:09:49.217Z,22.42
2023-03-12T19:12:15.846Z,22.65
2023-03-12T19:14:42.389Z,23.20
2023-03-12T19:17:08.817Z,22.15
2023-03-12T19:19:35.278Z,24.00
2023-03-12T19:22:01.755Z,31.83
2023-03-12T19:24:28.175Z,22.10
2023-03-12T19:26:54.624Z,22.17
2023-03-12T19:29:20.984Z,20.05
2023-03-12T19:31:47.747Z,19.80
2023-03-12T19:34:14.303Z,21.25
2023-03-12T19:36:40.793Z,23.58
2023-03-12T19:39:15.252Z,27.25
2023-03-12T19:41:46.817Z,22.80
2023-03-12T19:44:13.187Z,25.80
2023-03-12T19:46:42.830Z,21.65
2023-03-12T19:49:09.356Z,20.08
2023-03-12T19:51:35.994Z,20.48
2023-03-12T19:54:02.522Z,24.55
2023-03-12T19:56:29.287Z,28.70
2023-03-12T19:58:55.638Z,20.88
2023-03-12T20:01:22.806Z,21.73
2023-03-12T20:03:49.211Z,21.85
2023-03-12T20:06:15.596Z,39.88
2023-03-12T20:08:41.998Z,36.42
2023-03-12T20:11:10.196Z,30.67
2023-03-12T20:13:40.083Z,30.40
2023-03-12T20:16:07.454Z,21.88
2023-03-12T20:18:34.098Z,20.15
2023-03-12T20:21:00.494Z,17.17
2023-03-12T20:23:27.180Z,39.80
2023-03-12T20:25:53.723Z,22.38
2023-03-12T20:28:20.122Z,21.15
2023-03-12T20:30:46.570Z,22.20
2023-03-12T20:33:13.612Z,25.73
2023-03-12T20:35:40.149Z,25.00
2023-03-12T20:38:06.637Z,22.85
2023-03-12T20:40:33.238Z,22.25
2023-03-12T20:43:02.345Z,22.05
2023-03-12T20:45:30.185Z,20.67
2023-03-12T20:47:57.727Z,20.73
2023-03-12T20:50:25.389Z,27.90
2023-03-12T20:52:51.899Z,24.15
2023-03-12T20:55:18.789Z,20.83
2023-03-12T20:57:45.199Z,22.23
2023-03-12T21:00:12.129Z,19.05
2023-03-12T21:02:38.679Z,19.98
2023-03-12T21:05:05.346Z,20.52
2023-03-12T21:07:31.871Z,23.98
2023-03-12T21:09:58.552Z,19.98
2023-03-12T21:12:25.028Z,20.73
2023-03-12T21:14:51.442Z,23.90
2023-03-12T21:17:17.787Z,20.25
2023-03-12T21:19:44.394Z,23.30
2023-03-12T21:22:10.750Z,19.05
2023-03-12T21:24:37.273Z,22.85
2023-03-12T21:27:03.877Z,25.88
2023-03-12T21:29:30.306Z,24.60
2023-03-12T21:31:57.344Z,22.30
2023-03-12T21:34:23.750Z,20.83
2023-03-12T21:36:50.173Z,23.83
2023-03-12T21:39:17.280Z,19.30
2023-03-12T21:41:43.673Z,21.35
2023-03-12T21:44:10.122Z,19.13
2023-03-12T21:46:36.678Z,23.60
2023-03-12T21:49:03.306Z,25.77
2023-03-12T21:51:29.708Z,21.83
2023-03-12T21:53:57.861Z,21.65
2023-03-12T21:56:28.113Z,21.73
2023-03-12T21:58:56.560Z,30.42
2023-03-12T22:01:23.280Z,25.98
2023-03-12T22:03:50.224Z,21.60
2023-03-12T22:06:16.873Z,16.75
2023-03-12T22:08:47.952Z,20.98
2023-03-12T22:11:15.397Z,27.10
2023-03-12T22:13:42.135Z,35.55
2023-03-12T22:16:08.843Z,23.25
2023-03-12T22:18:40.648Z,26.20
2023-03-12T22:21:08.000Z,25.60
2023-03-12T22:23:36.111Z,22.80
2023-03-12T22:26:04.671Z,19.13
2023-03-12T22:28:31.723Z,22.10
2023-03-12T22:30:59.671Z,28.10
2023-03-12T22:33:27.022Z,22.15
2023-03-12T22:35:54.134Z,22.38
2023-03-12T22:38:21.403Z,20.75
2023-03-12T22:43:35.877Z,9.98
2023-03-12T22:46:02.392Z,12.38
2023-03-12T22:48:28.751Z,8.15
2023-03-12T22:50:55.092Z,14.82
2023-03-12T22:53:21.471Z,10.40
2023-03-12T22:55:56.542Z,16.80
2023-03-12T22:58:22.904Z,15.85
2023-03-12T23:00:49.234Z,15.23
2023-03-12T23:03:15.730Z,18.70
2023-03-12T23:05:42.092Z,14.98
2023-03-12T23:08:08.580Z,7.78
2023-03-12T23:10:34.932Z,15.98
2023-03-12T23:13:01.354Z,7.47
2023-03-12T23:15:38.759Z,14.90
2023-03-12T23:18:06.860Z,16.25
2023-03-12T23:20:33.196Z,13.05
2023-03-12T23:22:59.686Z,14.60
2023-03-12T23:25:26.051Z,8.43
2023-03-12T23:27:52.387Z,15.45
2023-03-12T23:30:18.820Z,15.57
2023-03-12T23:32:45.294Z,13.80
2023-03-12T23:35:11.708Z,18.75
2023-03-12T23:37:38.126Z,13.07
2023-03-12T23:40:06.487Z,14.45
2023-03-12T23:42:33.112Z,16.52
2023-03-12T23:44:59.443Z,12.70
2023-03-12T23:47:25.811Z,17.70
2023-03-12T23:49:52.210Z,14.88
2023-03-12T23:52:18.660Z,11.43
2023-03-12T23:54:45.126Z,12.32
2023-03-12T23:57:11.524Z,12.77
2023-03-12T23:59:37.836Z,9.20
